Time;durP1;ratioP1;P1;durP2;ratioP2;P2;SDS_P1;SDS_P2;PMS_P1;PMS_P2;Temp;Humidity;BMP_temperature;BMP_pressure;BME280_temperature;BME280_humidity;BME280_pressure;Samples;Min_cycle;Max_cycle;Signal;HPM_P1;HPM_P2
2022/05/03 00:00:11;;;;;;;2.05;1.40;;;15.20;59.80;;;;;;20809800;28;20041;-75
2022/05/03 00:10:17;;;;;;;1.65;1.05;;;15.20;59.80;;;;;;20808328;28;20059;-74
2022/05/03 00:20:18;;;;;;;2.10;1.30;;;15.20;59.80;;;;;;20792083;28;20373;-74
2022/05/03 00:30:18;;;;;;;1.55;1.00;;;15.20;59.80;;;;;;20806918;28;20057;-74
2022/05/03 00:40:19;;;;;;;2.65;1.27;;;15.20;59.80;;;;;;20824212;28;20033;-75
2022/05/03 00:50:34;;;;;;;2.05;1.20;;;15.10;59.70;;;;;;20806517;28;20080;-76
2022/05/03 01:00:35;;;;;;;1.13;0.95;;;15.10;59.70;;;;;;20821971;28;20112;-74
2022/05/03 01:10:41;;;;;;;2.08;1.10;;;15.10;59.60;;;;;;20821685;28;20171;-75
2022/05/03 01:20:49;;;;;;;3.55;1.27;;;15.10;59.50;;;;;;20803799;28;20037;-74
2022/05/03 01:30:49;;;;;;;1.75;1.17;;;15.10;59.50;;;;;;20805572;28;20502;-74
2022/05/03 01:41:30;;;;;;;1.42;1.15;;;15.10;59.50;;;;;;20819820;28;20037;-74
2022/05/03 01:52:05;;;;;;;0.93;0.82;;;15.10;59.50;;;;;;20806771;28;20029;-74
2022/05/03 02:02:13;;;;;;;2.13;1.10;;;15.00;59.30;;;;;;20786610;28;20456;-74
2022/05/03 02:12:15;;;;;;;1.30;1.10;;;15.00;59.30;;;;;;20796253;28;20037;-74
2022/05/03 02:22:31;;;;;;;1.10;0.90;;;15.00;59.30;;;;;;20818382;28;20037;-74
2022/05/03 02:32:45;;;;;;;1.77;0.85;;;15.00;59.30;;;;;;20816060;28;20045;-74
2022/05/03 02:42:45;;;;;;;0.82;0.80;;;14.90;59.20;;;;;;21295812;22;20053;-80
2022/05/03 02:52:56;;;;;;;0.87;0.80;;;15.00;59.30;;;;;;20980500;28;20473;-79
2022/05/03 03:03:18;;;;;;;2.42;1.05;;;14.90;59.30;;;;;;20963251;28;20294;-78
2022/05/03 03:13:31;;;;;;;1.27;0.95;;;14.90;59.30;;;;;;20994948;28;20044;-79
2022/05/03 03:23:32;;;;;;;1.63;1.02;;;14.90;59.30;;;;;;20944860;28;20033;-79
2022/05/03 03:33:34;;;;;;;2.50;0.93;;;14.90;59.80;;;;;;20976984;28;20045;-78
2022/05/03 03:43:34;;;;;;;2.65;0.93;;;14.80;59.10;;;;;;20977999;28;20037;-79
2022/05/03 03:53:35;;;;;;;1.20;0.85;;;14.80;59.00;;;;;;20937369;28;20036;-77
2022/05/03 04:03:37;;;;;;;1.63;1.00;;;14.90;59.00;;;;;;20958319;28;20464;-79
2022/05/03 04:13:37;;;;;;;0.85;0.82;;;14.80;58.90;;;;;;20941855;28;20592;-80
2022/05/03 04:23:38;;;;;;;0.88;0.70;;;14.80;58.80;;;;;;20976070;28;20056;-77
2022/05/03 04:33:39;;;;;;;2.58;0.80;;;14.80;58.80;;;;;;20989049;28;20036;-75
2022/05/03 04:43:39;;;;;;;1.63;1.00;;;14.80;58.70;;;;;;20973587;28;20510;-79
2022/05/03 04:53:40;;;;;;;1.10;0.88;;;14.80;58.70;;;;;;20953598;28;20291;-77
2022/05/03 05:03:41;;;;;;;0.80;0.60;;;14.70;58.60;;;;;;20989211;28;20114;-75
2022/05/03 05:13:41;;;;;;;3.47;0.90;;;14.70;58.60;;;;;;20973306;28;20044;-82
2022/05/03 05:23:42;;;;;;;0.63;0.60;;;14.70;58.50;;;;;;20987363;28;20078;-81
2022/05/03 05:33:43;;;;;;;1.67;0.80;;;14.70;58.50;;;;;;20970509;28;20115;-78
2022/05/03 05:43:43;;;;;;;1.10;0.93;;;14.70;58.60;;;;;;20973280;28;20036;-77
2022/05/03 05:53:44;;;;;;;1.30;0.80;;;14.70;58.70;;;;;;20984958;28;20471;-77
2022/05/03 06:03:44;;;;;;;1.58;0.90;;;14.70;58.70;;;;;;21001301;28;20499;-76
2022/05/03 06:13:45;;;;;;;1.42;0.88;;;14.70;58.70;;;;;;20983983;28;20360;-76
2022/05/03 06:23:46;;;;;;;1.35;0.68;;;14.70;58.80;;;;;;20981666;28;20572;-76
2022/05/03 06:33:46;;;;;;;2.25;0.73;;;14.70;58.80;;;;;;20965118;28;20039;-76
2022/05/03 06:43:47;;;;;;;1.25;0.70;;;14.70;58.80;;;;;;20948828;28;20194;-76
2022/05/03 06:53:48;;;;;;;1.25;0.82;;;14.70;58.80;;;;;;20994372;28;20051;-76
2022/05/03 07:03:48;;;;;;;0.88;0.60;;;14.80;58.80;;;;;;20962462;28;20111;-76
2022/05/03 07:13:49;;;;;;;0.98;0.65;;;14.80;58.80;;;;;;20961316;28;20055;-77
2022/05/03 07:23:50;;;;;;;1.30;0.70;;;14.80;58.80;;;;;;20993806;28;20033;-77
2022/05/03 07:33:50;;;;;;;0.88;0.60;;;14.80;58.80;;;;;;20955479;28;20447;-77
2022/05/03 07:43:51;;;;;;;1.00;0.57;;;14.90;58.80;;;;;;20991253;28;20462;-77
2022/05/03 07:53:51;;;;;;;1.60;0.80;;;14.90;58.80;;;;;;20990810;28;20124;-76
2022/05/03 08:03:52;;;;;;;3.30;1.00;;;14.90;58.70;;;;;;20984047;28;20518;-77
2022/05/03 08:13:52;;;;;;;1.40;0.90;;;14.90;58.60;;;;;;20972486;28;20481;-77
2022/05/03 08:23:54;;;;;;;0.93;0.50;;;14.90;58.60;;;;;;20939553;28;20287;-77
2022/05/03 08:33:54;;;;;;;1.50;0.60;;;14.90;58.50;;;;;;20955142;28;20444;-77
2022/05/03 08:43:58;;;;;;;1.80;0.70;;;14.90;58.50;;;;;;20954666;28;20125;-76
2022/05/03 08:53:59;;;;;;;1.13;0.63;;;15.00;58.50;;;;;;20953771;28;20098;-76
2022/05/03 09:04:00;;;;;;;0.52;0.50;;;15.00;58.50;;;;;;20952614;28;20059;-76
2022/05/03 09:14:01;;;;;;;1.90;0.80;;;15.00;58.50;;;;;;20952459;28;20040;-77
2022/05/03 09:24:01;;;;;;;1.50;1.03;;;15.00;58.50;;;;;;20985439;28;20489;-76
2022/05/03 09:34:19;;;;;;;1.20;0.70;;;15.00;58.50;;;;;;20935977;28;20389;-77
2022/05/03 09:44:19;;;;;;;2.58;0.70;;;15.00;58.50;;;;;;20969065;28;20839;-76
2022/05/03 09:54:20;;;;;;;1.48;0.80;;;15.00;58.50;;;;;;20947702;28;20128;-76
2022/05/03 10:04:21;;;;;;;1.52;1.10;;;15.00;58.40;;;;;;20966844;28;20029;-76
2022/05/03 10:14:21;;;;;;;1.73;0.85;;;15.00;58.50;;;;;;20949938;28;20045;-76
2022/05/03 10:24:23;;;;;;;1.55;0.82;;;15.10;58.40;;;;;;20883211;28;20121;-76
2022/05/03 10:34:42;;;;;;;1.45;0.90;;;15.00;58.20;;;;;;20894625;28;20068;-76
2022/05/03 10:45:15;;;;;;;1.80;1.15;;;15.00;58.20;;;;;;20940222;28;20040;-76
2022/05/03 10:55:16;;;;;;;1.13;0.65;;;15.00;58.20;;;;;;20955476;28;20099;-81
2022/05/03 11:05:18;;;;;;;1.85;1.00;;;15.00;57.90;;;;;;20963125;28;20417;-76
2022/05/03 11:15:19;;;;;;;4.00;1.02;;;15.00;57.80;;;;;;20948474;28;20041;-77
2022/05/03 11:25:19;;;;;;;1.38;0.93;;;15.00;57.70;;;;;;20996545;28;20028;-76
2022/05/03 11:35:23;;;;;;;1.50;0.73;;;15.00;57.70;;;;;;20963036;28;20072;-84
2022/05/03 11:45:24;;;;;;;0.88;0.60;;;15.10;57.70;;;;;;20977985;28;20033;-81
2022/05/03 12:06:03;;;;;;;1.20;0.80;;;15.10;57.70;;;;;;20985178;28;20394;-74
2022/05/03 12:16:08;;;;;;;1.60;0.75;;;15.00;57.80;;;;;;20975546;28;20032;-74
2022/05/03 12:26:21;;;;;;;0.82;0.63;;;15.10;57.90;;;;;;20957475;28;20429;-72
2022/05/03 12:36:32;;;;;;;1.15;0.77;;;15.10;58.00;;;;;;20991322;28;20045;-76
2022/05/03 12:46:33;;;;;;;0.90;0.55;;;15.10;58.10;;;;;;20972358;28;20035;-72
2022/05/03 13:06:53;;;;;;;1.35;0.88;;;15.20;58.10;;;;;;20975571;28;20270;-73
2022/05/03 13:16:54;;;;;;;1.37;0.80;;;15.20;58.10;;;;;;20953429;28;20036;-76
2022/05/03 13:26:57;;;;;;;0.70;0.68;;;15.30;58.10;;;;;;20947300;28;20307;-73
2022/05/03 13:47:16;;;;;;;1.58;0.80;;;15.30;58.20;;;;;;20956762;28;20075;-73
2022/05/03 13:57:17;;;;;;;2.42;0.88;;;15.30;58.10;;;;;;20900204;28;20748;-76
2022/05/03 14:07:18;;;;;;;2.90;0.90;;;15.30;58.10;;;;;;20907947;28;20090;-78
2022/05/03 14:17:19;;;;;;;0.80;0.60;;;15.40;58.20;;;;;;20983820;28;20064;-77
2022/05/03 14:27:20;;;;;;;2.90;1.17;;;15.40;58.20;;;;;;20999812;28;20052;-79
2022/05/03 14:37:20;;;;;;;4.47;2.35;;;15.40;58.20;;;;;;20964462;28;20094;-79
2022/05/03 14:47:21;;;;;;;6.50;1.42;;;15.60;59.00;;;;;;20980570;28;20028;-81
2022/05/03 15:07:58;;;;;;;3.00;1.50;;;15.90;58.90;;;;;;20946717;28;20048;-80
2022/05/03 15:17:59;;;;;;;5.38;1.30;;;15.90;58.70;;;;;;20979530;28;20059;-79
2022/05/03 15:28:01;;;;;;;4.15;1.65;;;15.90;58.90;;;;;;20961209;28;20028;-79
2022/05/03 15:38:01;;;;;;;3.55;2.00;;;16.00;58.90;;;;;;20962502;28;20127;-80
2022/05/03 15:48:02;;;;;;;3.38;1.38;;;16.10;58.70;;;;;;20996614;28;20442;-78
2022/05/03 15:58:03;;;;;;;5.68;1.85;;;16.20;58.70;;;;;;20963181;28;20032;-78
2022/05/03 16:08:04;;;;;;;5.22;1.45;;;16.20;58.50;;;;;;20978662;28;20033;-79
2022/05/03 16:18:05;;;;;;;4.47;1.55;;;16.30;58.50;;;;;;20975691;28;20044;-80
2022/05/03 16:28:05;;;;;;;3.55;1.70;;;16.40;58.50;;;;;;20955608;28;20550;-79
2022/05/03 16:48:25;;;;;;;3.08;1.40;;;16.40;58.30;;;;;;20963367;28;20032;-80
2022/05/03 16:58:26;;;;;;;2.50;1.57;;;16.50;58.30;;;;;;20941937;28;20044;-82
2022/05/03 17:08:27;;;;;;;2.45;1.20;;;16.50;58.30;;;;;;20972961;28;20299;-79
2022/05/03 17:18:27;;;;;;;3.17;1.17;;;16.50;58.20;;;;;;20973738;28;20395;-83
2022/05/03 17:28:28;;;;;;;3.53;1.55;;;16.40;58.20;;;;;;20938753;28;20461;-81
2022/05/03 17:38:28;;;;;;;2.22;1.20;;;16.40;58.20;;;;;;20972783;28;20037;-79
2022/05/03 17:48:29;;;;;;;2.47;1.33;;;16.40;58.20;;;;;;20986869;28;20032;-81
2022/05/03 17:58:30;;;;;;;2.22;1.65;;;16.30;58.20;;;;;;20953768;28;20032;-77
2022/05/03 18:08:33;;;;;;;2.10;1.33;;;16.30;58.30;;;;;;20982793;28;20039;-78
2022/05/03 18:18:34;;;;;;;3.83;1.33;;;16.20;58.40;;;;;;20948935;28;20310;-78
2022/05/03 18:28:35;;;;;;;1.88;1.23;;;16.10;58.40;;;;;;20998981;28;20068;-78
2022/05/03 18:38:36;;;;;;;4.97;1.52;;;16.00;58.50;;;;;;20960882;28;20037;-76
2022/05/03 18:48:36;;;;;;;2.77;1.40;;;16.00;58.60;;;;;;20880658;28;20044;-81
2022/05/03 18:58:37;;;;;;;2.13;1.23;;;15.90;58.50;;;;;;20938406;28;20340;-80
2022/05/03 19:08:38;;;;;;;3.35;1.40;;;15.90;58.70;;;;;;21000907;28;20078;-77
2022/05/03 19:18:38;;;;;;;2.50;1.20;;;15.90;58.80;;;;;;21002665;28;20072;-76
2022/05/03 19:38:58;;;;;;;1.85;1.05;;;15.80;59.00;;;;;;20982093;28;20036;-73
2022/05/03 19:49:00;;;;;;;1.92;1.10;;;15.80;59.10;;;;;;20958733;28;20064;-74
2022/05/03 19:59:00;;;;;;;3.95;0.93;;;15.80;59.10;;;;;;20915293;28;20047;-72
2022/05/03 20:09:01;;;;;;;3.03;1.17;;;15.80;59.20;;;;;;20903990;28;20028;-73
2022/05/03 20:19:01;;;;;;;1.50;1.05;;;15.70;59.20;;;;;;20971786;28;20383;-75
2022/05/03 20:29:04;;;;;;;2.53;1.20;;;15.70;59.20;;;;;;20955338;28;20543;-73
2022/05/03 20:39:04;;;;;;;2.55;1.27;;;15.70;59.20;;;;;;20971968;28;20044;-73
2022/05/03 20:49:05;;;;;;;3.20;1.35;;;15.70;59.20;;;;;;20987821;28;20398;-72
2022/05/03 20:59:07;;;;;;;2.95;1.10;;;15.60;59.10;;;;;;20970805;28;20119;-73
2022/05/03 21:09:07;;;;;;;3.40;1.10;;;15.70;59.10;;;;;;20987598;28;20032;-73
2022/05/03 21:19:08;;;;;;;2.17;1.23;;;15.60;59.10;;;;;;20953949;28;20045;-73
2022/05/03 21:29:08;;;;;;;1.08;0.90;;;15.60;59.10;;;;;;20968992;28;20298;-73
2022/05/03 21:39:09;;;;;;;1.67;1.10;;;15.60;59.10;;;;;;20952989;28;20113;-73
2022/05/03 21:49:10;;;;;;;2.83;1.42;;;15.60;59.10;;;;;;20951461;28;20566;-73
2022/05/03 21:59:10;;;;;;;1.75;1.08;;;15.60;59.20;;;;;;20984901;28;20032;-74
2022/05/03 22:09:11;;;;;;;3.17;1.40;;;15.50;59.10;;;;;;20968012;28;20040;-73
2022/05/03 22:19:11;;;;;;;2.20;1.20;;;15.50;59.10;;;;;;20951403;28;20112;-73
2022/05/03 22:29:12;;;;;;;2.45;1.20;;;15.50;59.10;;;;;;20979647;28;20028;-73
2022/05/03 22:39:12;;;;;;;1.70;1.05;;;15.50;59.10;;;;;;20999918;28;20140;-73
2022/05/03 22:49:13;;;;;;;3.55;1.00;;;15.50;59.10;;;;;;20964825;28;20044;-73
2022/05/03 22:59:13;;;;;;;2.83;1.20;;;15.40;59.10;;;;;;20980340;28;20127;-75
2022/05/03 23:09:14;;;;;;;4.40;1.60;;;15.40;59.10;;;;;;20946347;28;20287;-74
2022/05/03 23:19:15;;;;;;;2.42;1.17;;;15.40;59.10;;;;;;20963513;28;20064;-73
2022/05/03 23:29:16;;;;;;;3.15;1.20;;;15.40;59.10;;;;;;20961242;28;20108;-73
2022/05/03 23:39:16;;;;;;;1.83;1.15;;;15.40;59.20;;;;;;20976727;28;20235;-73
2022/05/03 23:49:17;;;;;;;2.20;1.08;;;15.40;59.20;;;;;;20977215;28;20083;-75
2022/05/03 23:59:17;;;;;;;2.25;1.45;;;15.30;59.20;;;;;;20992160;28;20032;-73
